Time;durP1;ratioP1;P1;durP2;ratioP2;P2;SDS_P1;SDS_P2;PMS_P1;PMS_P2;Temp;Humidity;BMP_temperature;BMP_pressure;BME280_temperature;BME280_humidity;BME280_pressure;Samples;Min_cycle;Max_cycle;Signal;HPM_P1;HPM_P2
2020/12/14 00:02:24;;;;;;;10.50;4.20;;;;;;;4.64;100.00;100325.78;5000718;28;20042;-64
2020/12/14 00:04:49;;;;;;;10.37;3.97;;;;;;;4.67;100.00;100323.22;5005460;28;20299;-64
2020/12/14 00:07:15;;;;;;;10.90;4.07;;;;;;;4.68;100.00;100303.38;5006782;28;20276;-66
2020/12/14 00:09:40;;;;;;;8.73;4.13;;;;;;;4.67;100.00;100292.16;4999265;28;20034;-64
2020/12/14 00:12:06;;;;;;;8.70;3.97;;;;;;;4.70;100.00;100287.03;5005069;28;20038;-65
2020/12/14 00:14:31;;;;;;;8.77;3.80;;;;;;;4.69;100.00;100280.09;5003299;28;20033;-64
2020/12/14 00:16:57;;;;;;;9.43;4.43;;;;;;;4.68;100.00;100268.00;4996256;28;20026;-65
2020/12/14 00:19:22;;;;;;;8.27;3.77;;;;;;;4.73;100.00;100272.41;5002373;28;20218;-66
2020/12/14 00:21:52;;;;;;;9.53;4.13;;;;;;;4.77;100.00;100274.19;4999225;28;20068;-65
2020/12/14 00:24:18;;;;;;;7.90;4.07;;;;;;;4.74;100.00;100262.06;4997517;28;20041;-65
2020/12/14 00:26:43;;;;;;;9.33;4.53;;;;;;;4.69;100.00;100259.38;5001463;28;20285;-63
2020/12/14 00:29:09;;;;;;;9.40;4.10;;;;;;;4.62;100.00;100252.38;5000861;28;20027;-65
2020/12/14 00:31:34;;;;;;;10.47;3.67;;;;;;;4.57;100.00;100256.56;5003702;28;20076;-67
2020/12/14 00:33:59;;;;;;;8.97;3.90;;;;;;;4.51;100.00;100253.88;5000419;28;20109;-65
2020/12/14 00:36:25;;;;;;;9.93;3.73;;;;;;;4.50;100.00;100246.97;4981477;28;20401;-67
2020/12/14 00:38:50;;;;;;;8.90;3.43;;;;;;;4.45;100.00;100232.19;4999660;28;20030;-67
2020/12/14 00:41:18;;;;;;;9.93;4.03;;;;;;;4.45;100.00;100245.13;4997557;28;20029;-65
2020/12/14 00:43:43;;;;;;;11.87;3.80;;;;;;;4.34;100.00;100244.91;4999319;28;20441;-66
2020/12/14 00:46:13;;;;;;;9.57;3.83;;;;;;;4.32;100.00;100246.59;4998557;28;20284;-65
2020/12/14 00:48:38;;;;;;;8.53;3.50;;;;;;;4.31;100.00;100255.22;4998468;28;20034;-64
2020/12/14 00:51:04;;;;;;;9.33;4.27;;;;;;;4.32;100.00;100246.59;4999380;28;20351;-65
2020/12/14 00:53:29;;;;;;;10.97;4.00;;;;;;;4.33;100.00;100245.75;4997469;28;20029;-65
2020/12/14 00:55:55;;;;;;;8.57;3.53;;;;;;;4.38;100.00;100246.75;4996918;28;20021;-65
2020/12/14 00:58:20;;;;;;;10.27;4.20;;;;;;;4.44;100.00;100236.47;4995045;28;20037;-65
2020/12/14 01:00:45;;;;;;;9.77;3.87;;;;;;;4.51;100.00;100237.47;4996435;28;20648;-66
2020/12/14 01:03:11;;;;;;;10.70;3.87;;;;;;;4.49;100.00;100239.19;5002320;28;20026;-65
2020/12/14 01:05:36;;;;;;;10.20;4.37;;;;;;;4.45;100.00;100238.22;5001631;28;20469;-65
2020/12/14 01:08:02;;;;;;;8.73;3.60;;;;;;;4.42;100.00;100240.75;4997760;28;20034;-65
2020/12/14 01:10:27;;;;;;;8.13;3.70;;;;;;;4.44;100.00;100236.47;4997326;28;20030;-65
2020/12/14 01:12:53;;;;;;;8.37;3.93;;;;;;;4.54;100.00;100243.59;4998793;28;20496;-64
2020/12/14 01:15:18;;;;;;;8.67;3.50;;;;;;;4.65;100.00;100236.88;4999891;28;20026;-64
2020/12/14 01:17:43;;;;;;;9.47;3.80;;;;;;;4.69;100.00;100237.78;4996915;28;20026;-68
2020/12/14 01:20:13;;;;;;;9.07;4.10;;;;;;;4.74;100.00;100235.31;4995419;28;20054;-65
2020/12/14 01:22:39;;;;;;;7.90;3.27;;;;;;;4.81;100.00;100226.78;4999635;28;20041;-65
2020/12/14 01:25:04;;;;;;;8.47;3.20;;;;;;;4.85;100.00;100234.66;5000621;28;20315;-62
2020/12/14 01:27:30;;;;;;;7.40;3.60;;;;;;;4.87;100.00;100226.91;5000215;28;20042;-64
2020/12/14 01:29:55;;;;;;;8.00;3.20;;;;;;;4.96;100.00;100230.47;4999563;28;20393;-64
2020/12/14 01:32:20;;;;;;;9.57;3.80;;;;;;;4.99;100.00;100232.28;4992337;28;20738;-63
2020/12/14 01:34:46;;;;;;;10.00;3.37;;;;;;;5.03;100.00;100239.25;4999818;28;20030;-66
2020/12/14 01:37:11;;;;;;;11.33;4.00;;;;;;;5.09;100.00;100239.34;4999852;28;20407;-64
2020/12/14 01:39:36;;;;;;;7.67;3.40;;;;;;;5.10;100.00;100235.91;4994648;28;20040;-64
2020/12/14 01:42:02;;;;;;;6.83;3.13;;;;;;;5.13;100.00;100235.09;4994851;28;20034;-65
2020/12/14 01:44:27;;;;;;;10.30;3.50;;;;;;;5.17;100.00;100235.16;4998126;28;20030;-65
2020/12/14 01:46:53;;;;;;;7.97;3.20;;;;;;;5.20;100.00;100232.59;4995475;28;20245;-64
2020/12/14 01:49:19;;;;;;;7.13;3.00;;;;;;;5.19;100.00;100223.09;4995814;28;20383;-65
2020/12/14 01:51:45;;;;;;;10.10;3.07;;;;;;;5.20;100.00;100226.53;4996518;28;20164;-65
2020/12/14 01:54:34;;;;;;;8.43;3.10;;;;;;;5.22;100.00;100230.94;4999313;28;20030;-65
2020/12/14 01:57:02;;;;;;;10.17;2.87;;;;;;;5.30;100.00;100229.31;4997270;28;20285;-65
2020/12/14 01:59:27;;;;;;;7.00;3.00;;;;;;;5.31;100.00;100222.41;4997013;28;20308;-65
2020/12/14 02:01:53;;;;;;;8.30;2.93;;;;;;;5.27;100.00;100229.25;4998153;28;20411;-65
2020/12/14 02:04:18;;;;;;;6.93;2.97;;;;;;;5.24;100.00;100213.66;4998955;28;20077;-64
2020/12/14 02:06:44;;;;;;;7.47;2.87;;;;;;;5.22;100.00;100210.19;5000797;28;20033;-64
2020/12/14 02:09:10;;;;;;;7.17;3.00;;;;;;;5.20;100.00;100211.00;5006511;28;20041;-65
2020/12/14 02:11:35;;;;;;;11.13;3.03;;;;;;;5.18;100.00;100207.50;4992200;28;20076;-65
2020/12/14 02:14:01;;;;;;;11.70;3.17;;;;;;;5.18;100.00;100203.19;4999759;28;20352;-64
2020/12/14 02:16:27;;;;;;;7.23;3.30;;;;;;;5.10;100.00;100194.47;5002291;28;20022;-64
2020/12/14 02:18:52;;;;;;;10.80;3.00;;;;;;;5.11;100.00;100193.59;5004886;28;20025;-65
2020/12/14 02:21:18;;;;;;;6.57;3.00;;;;;;;5.08;100.00;100193.53;4997709;28;20434;-66
2020/12/14 02:23:44;;;;;;;5.77;2.70;;;;;;;5.07;100.00;100186.63;4998506;28;20038;-66
2020/12/14 02:26:10;;;;;;;6.33;2.73;;;;;;;5.02;100.00;100185.69;4996634;28;20409;-65
2020/12/14 02:28:36;;;;;;;7.33;3.17;;;;;;;4.98;100.00;100199.44;4994565;28;20277;-64
2020/12/14 02:31:01;;;;;;;8.70;3.30;;;;;;;4.93;100.00;100195.91;4998141;28;20034;-64
2020/12/14 02:33:26;;;;;;;8.73;2.97;;;;;;;4.94;100.00;100195.91;4996452;28;20287;-65
2020/12/14 02:35:52;;;;;;;8.80;3.20;;;;;;;4.89;100.00;100183.75;4996722;28;20033;-65
2020/12/14 02:38:17;;;;;;;4.73;2.47;;;;;;;4.82;100.00;100187.06;5000359;28;20093;-64
2020/12/14 02:40:43;;;;;;;7.03;3.10;;;;;;;4.82;100.00;100182.75;4998480;28;20026;-64
2020/12/14 02:43:08;;;;;;;8.70;3.10;;;;;;;4.87;100.00;100175.97;5002386;28;20025;-64
2020/12/14 02:45:36;;;;;;;8.37;2.93;;;;;;;4.89;100.00;100173.38;4996747;28;20026;-64
2020/12/14 02:48:02;;;;;;;8.17;2.77;;;;;;;4.90;100.00;100170.81;4997153;28;20030;-65
2020/12/14 02:50:29;;;;;;;6.60;2.63;;;;;;;5.00;100.00;100161.47;4996035;28;20351;-64
2020/12/14 02:52:55;;;;;;;6.73;2.77;;;;;;;5.04;99.95;100158.06;5001411;28;20025;-65
2020/12/14 02:55:20;;;;;;;7.37;2.80;;;;;;;5.14;99.41;100165.13;5002082;28;20372;-65
2020/12/14 02:57:46;;;;;;;6.20;2.70;;;;;;;5.12;99.59;100172.03;4998645;28;20076;-65
2020/12/14 03:00:11;;;;;;;9.27;3.10;;;;;;;5.15;99.63;100172.06;4998336;28;20064;-65
2020/12/14 03:02:36;;;;;;;4.97;2.30;;;;;;;5.18;99.01;100172.09;4999925;28;20554;-65
2020/12/14 03:05:02;;;;;;;10.03;2.50;;;;;;;5.21;98.83;100160.94;5005263;28;20033;-63
2020/12/14 03:07:27;;;;;;;6.40;2.47;;;;;;;5.24;98.61;100161.84;5001153;28;20025;-66
2020/12/14 03:09:53;;;;;;;6.33;2.67;;;;;;;5.30;97.83;100167.09;4999813;28;20601;-64
2020/12/14 03:12:18;;;;;;;6.50;2.80;;;;;;;5.28;98.04;100158.44;5002840;28;20485;-64
2020/12/14 03:14:43;;;;;;;6.03;2.57;;;;;;;5.29;98.09;100152.38;5001541;28;20068;-66
2020/12/14 03:17:09;;;;;;;6.23;2.40;;;;;;;5.31;97.46;100155.00;4999298;28;20022;-65
2020/12/14 03:19:34;;;;;;;6.97;2.30;;;;;;;5.30;97.26;100151.53;5006411;28;20508;-63
2020/12/14 03:22:00;;;;;;;6.17;2.30;;;;;;;5.32;97.21;100155.88;4999340;28;20131;-66
2020/12/14 03:24:25;;;;;;;7.13;2.20;;;;;;;5.32;97.02;100155.88;4999065;28;20507;-65
2020/12/14 03:26:50;;;;;;;8.70;2.30;;;;;;;5.29;97.21;100149.78;5004681;28;20038;-65
2020/12/14 03:29:16;;;;;;;6.90;2.33;;;;;;;5.30;96.51;100156.72;5000710;28;20924;-64
2020/12/14 03:31:42;;;;;;;5.60;2.03;;;;;;;5.29;96.46;100149.78;4997183;28;20026;-65
2020/12/14 03:34:07;;;;;;;5.37;2.40;;;;;;;5.31;96.22;100152.41;4997675;28;20029;-64
2020/12/14 03:36:33;;;;;;;5.60;2.40;;;;;;;5.30;96.72;100146.34;4995521;28;20142;-65
2020/12/14 03:38:58;;;;;;;5.00;2.00;;;;;;;5.30;96.53;100153.25;4999513;28;20032;-66
2020/12/14 03:41:24;;;;;;;7.30;2.20;;;;;;;5.30;96.98;100135.97;4995370;28;20461;-65
2020/12/14 03:43:50;;;;;;;4.63;2.20;;;;;;;5.28;97.51;100127.31;5000345;28;20028;-64
2020/12/14 03:46:23;;;;;;;5.10;2.40;;;;;;;5.33;96.57;100124.81;4999610;28;20022;-65
2020/12/14 03:48:53;;;;;;;5.22;2.30;;;;;;;5.30;96.64;100123.03;5005535;28;20277;-65
2020/12/14 03:51:18;;;;;;;5.00;2.00;;;;;;;5.34;96.50;100120.50;4999940;28;20034;-65
2020/12/14 03:53:44;;;;;;;5.93;2.30;;;;;;;5.33;96.62;100130.00;5004026;28;20277;-65
2020/12/14 03:56:10;;;;;;;4.40;1.73;;;;;;;5.33;96.03;100124.81;5000829;28;20036;-64
2020/12/14 03:58:35;;;;;;;5.70;1.90;;;;;;;5.36;95.53;100119.66;4995957;28;20037;-64
2020/12/14 04:01:01;;;;;;;6.43;1.73;;;;;;;5.37;96.06;100136.06;5002367;28;20036;-65
2020/12/14 04:03:26;;;;;;;5.90;2.00;;;;;;;5.37;95.66;100123.97;5001327;28;20040;-65
2020/12/14 04:05:52;;;;;;;4.20;1.80;;;;;;;5.37;95.14;100116.22;4983427;28;20400;-65
2020/12/14 04:08:18;;;;;;;6.10;1.90;;;;;;;5.35;95.49;100115.31;5004357;28;20030;-63
2020/12/14 04:10:44;;;;;;;5.83;1.67;;;;;;;5.32;95.64;100101.44;5002808;28;20030;-65
2020/12/14 04:13:09;;;;;;;4.00;1.90;;;;;;;5.38;95.78;100106.72;4999575;28;20026;-65
2020/12/14 04:15:35;;;;;;;5.00;1.77;;;;;;;5.38;95.64;100117.06;4996532;28;20351;-65
2020/12/14 04:18:00;;;;;;;3.83;1.50;;;;;;;5.40;95.31;100111.06;5001297;28;20038;-65
2020/12/14 04:20:26;;;;;;;4.93;1.80;;;;;;;5.44;94.70;100122.31;4999813;28;20473;-64
2020/12/14 04:22:51;;;;;;;4.27;1.80;;;;;;;5.44;95.04;100120.59;4997493;28;20433;-65
2020/12/14 04:25:17;;;;;;;6.83;2.17;;;;;;;5.44;94.77;100122.31;4999323;28;20021;-64
2020/12/14 04:27:43;;;;;;;8.30;2.00;;;;;;;5.47;94.76;100117.19;4999852;28;20021;-65
2020/12/14 04:30:08;;;;;;;6.97;1.90;;;;;;;5.49;94.98;100112.91;4999379;28;20026;-64
2020/12/14 04:32:34;;;;;;;5.57;1.60;;;;;;;5.50;94.74;100117.22;4999051;28;20292;-65
2020/12/14 04:34:59;;;;;;;4.93;1.70;;;;;;;5.52;94.47;100120.72;5000439;28;20037;-65
2020/12/14 04:37:24;;;;;;;5.27;1.80;;;;;;;5.53;93.91;100117.25;5001286;28;20025;-66
2020/12/14 04:39:50;;;;;;;6.43;1.53;;;;;;;5.55;94.02;100115.56;4995468;28;20018;-65
2020/12/14 04:42:15;;;;;;;4.83;1.60;;;;;;;5.44;94.13;100122.31;4998774;28;20030;-65
2020/12/14 04:44:42;;;;;;;3.37;1.47;;;;;;;5.27;95.07;100128.16;4996893;28;20026;-65
2020/12/14 04:47:12;;;;;;;3.90;1.70;;;;;;;5.20;95.06;100120.28;5002207;28;20033;-65
2020/12/14 04:49:39;;;;;;;6.17;1.60;;;;;;;5.14;95.52;100115.03;4996335;28;20312;-63
2020/12/14 04:52:05;;;;;;;5.00;1.70;;;;;;;5.11;96.43;100118.47;4996702;28;20368;-64
2020/12/14 04:54:31;;;;;;;4.37;1.70;;;;;;;5.13;95.91;100121.06;4997954;28;20368;-65
2020/12/14 04:57:04;;;;;;;5.17;2.10;;;;;;;5.12;95.81;100107.25;4994937;28;20512;-65
2020/12/14 04:59:29;;;;;;;;;;;;;;;5.13;96.13;100105.50;4996979;28;20776;-64
2020/12/14 05:02:05;;;;;;;5.80;1.60;;;;;;;5.13;96.13;100098.59;5001637;28;20020;-65
2020/12/14 05:04:31;;;;;;;3.77;1.47;;;;;;;5.16;95.55;100101.22;4996560;28;20034;-65
2020/12/14 05:06:56;;;;;;;4.27;1.50;;;;;;;5.23;94.44;100103.06;4995100;28;20291;-65
2020/12/14 05:09:22;;;;;;;6.77;1.90;;;;;;;5.24;94.99;100103.94;4997270;28;20507;-64
2020/12/14 05:11:47;;;;;;;5.97;1.57;;;;;;;5.23;94.58;100110.84;4997591;28;20117;-65
2020/12/14 05:14:17;;;;;;;5.37;1.50;;;;;;;5.28;94.67;100103.13;5000594;28;20117;-65
2020/12/14 05:16:43;;;;;;;9.07;1.40;;;;;;;5.28;94.85;100095.34;5004158;28;20073;-64
2020/12/14 05:19:25;;;;;;;3.23;1.37;;;;;;;5.30;94.64;100098.81;4998324;28;20317;-65
2020/12/14 05:21:53;;;;;;;3.95;1.30;;;;;;;5.32;94.44;100088.47;4981011;28;20030;-66
2020/12/14 05:24:39;;;;;;;4.07;1.60;;;;;;;5.35;93.91;100093.72;4991751;28;20026;-64
2020/12/14 05:27:05;;;;;;;3.90;1.30;;;;;;;5.34;94.02;100097.16;5000607;28;20808;-64
2020/12/14 05:29:30;;;;;;;5.53;1.50;;;;;;;5.34;94.32;100099.75;5000706;28;20307;-64
2020/12/14 05:32:10;;;;;;;6.70;1.60;;;;;;;5.34;94.30;100099.75;4998598;28;20134;-65
2020/12/14 05:34:43;;;;;;;5.37;1.63;;;;;;;5.37;94.07;100095.47;4993977;28;20054;-63
2020/12/14 05:37:11;;;;;;;4.80;1.48;;;;;;;5.43;94.23;100084.28;5003613;28;20288;-64
2020/12/14 05:39:37;;;;;;;4.30;1.60;;;;;;;5.44;93.65;100080.84;5001423;28;20022;-63
2020/12/14 05:42:20;;;;;;;2.57;1.20;;;;;;;5.43;94.84;100086.88;4999946;28;20277;-64
2020/12/14 05:44:49;;;;;;;3.25;1.40;;;;;;;5.42;94.51;100086.00;4999118;28;20353;-65
2020/12/14 05:47:27;;;;;;;3.10;1.30;;;;;;;5.43;94.64;100084.28;4997900;28;20034;-64
2020/12/14 05:49:53;;;;;;;3.83;1.37;;;;;;;5.44;94.44;100073.06;4997046;28;20319;-65
2020/12/14 05:52:20;;;;;;;5.47;1.57;;;;;;;5.43;95.39;100073.91;5001487;28;20718;-64
2020/12/14 05:54:53;;;;;;;3.40;1.37;;;;;;;5.40;96.14;100068.72;5000550;28;20309;-63
2020/12/14 05:57:27;;;;;;;4.93;1.47;;;;;;;5.42;95.37;100072.19;4993558;28;20856;-65
2020/12/14 05:59:57;;;;;;;2.97;1.20;;;;;;;5.43;95.44;100066.13;4997885;28;20273;-65
2020/12/14 06:02:24;;;;;;;2.80;1.10;;;;;;;5.37;96.78;100064.34;5000093;28;20300;-66
2020/12/14 06:04:54;;;;;;;3.60;1.20;;;;;;;5.34;97.02;100068.66;4993531;28;20739;-64
2020/12/14 06:07:25;;;;;;;3.83;1.30;;;;;;;5.39;96.53;100070.44;4976547;28;20305;-64
2020/12/14 06:10:03;;;;;;;3.40;1.37;;;;;;;5.42;96.78;100061.81;5001266;28;20439;-64
2020/12/14 06:12:32;;;;;;;5.03;1.40;;;;;;;5.45;96.51;100067.94;4999891;28;20277;-65
2020/12/14 06:15:16;;;;;;;4.83;1.37;;;;;;;5.54;95.33;100073.19;5000413;28;20288;-65
2020/12/14 06:17:41;;;;;;;3.40;1.40;;;;;;;5.56;95.43;100075.81;5001367;28;20332;-65
2020/12/14 06:20:11;;;;;;;6.47;1.20;;;;;;;5.56;96.24;100070.63;5000157;28;21135;-64
2020/12/14 06:22:42;;;;;;;2.87;1.63;;;;;;;5.62;95.72;100075.88;4999089;28;20311;-65
2020/12/14 06:25:09;;;;;;;5.20;1.47;;;;;;;5.65;94.76;100075.91;4997992;28;20273;-63
2020/12/14 06:27:34;;;;;;;3.70;1.40;;;;;;;5.66;94.78;100072.47;5000891;28;20276;-64
2020/12/14 06:30:00;;;;;;;4.07;1.27;;;;;;;5.67;94.91;100081.97;4999440;28;20800;-65
2020/12/14 06:32:39;;;;;;;6.37;1.63;;;;;;;5.67;94.81;100079.38;4992897;28;20101;-65
2020/12/14 06:35:15;;;;;;;3.23;1.33;;;;;;;5.69;94.70;100082.88;4996437;28;20038;-65
2020/12/14 06:37:49;;;;;;;4.33;1.37;;;;;;;5.73;94.74;100089.84;5006264;28;20313;-65
2020/12/14 06:40:15;;;;;;;5.07;1.40;;;;;;;5.77;94.21;100089.00;5008310;28;20352;-64
2020/12/14 06:42:40;;;;;;;5.80;1.27;;;;;;;5.86;94.46;100088.25;5004970;28;20376;-65
2020/12/14 06:45:08;;;;;;;5.13;1.57;;;;;;;5.89;94.44;100072.72;5000791;28;20489;-66
2020/12/14 06:47:44;;;;;;;4.20;1.60;;;;;;;5.92;93.72;100064.97;5002765;28;20023;-65
2020/12/14 06:50:28;;;;;;;4.83;1.60;;;;;;;5.91;94.69;100064.97;4997809;28;20360;-65
2020/12/14 06:52:53;;;;;;;5.57;1.60;;;;;;;5.92;94.23;100070.16;4997432;28;20273;-65
2020/12/14 06:55:46;;;;;;;6.67;1.47;;;;;;;5.96;94.08;100077.16;4974596;28;20618;-64
2020/12/14 06:58:32;;;;;;;3.60;1.38;;;;;;;5.98;94.30;100069.38;5005781;28;20505;-66
2020/12/14 07:00:58;;;;;;;4.30;1.20;;;;;;;6.04;94.05;100074.63;5004645;28;20038;-65
2020/12/14 07:03:37;;;;;;;2.87;1.20;;;;;;;5.99;96.37;100068.53;4999094;28;20309;-66
2020/12/14 07:06:05;;;;;;;5.13;1.50;;;;;;;6.00;97.08;100075.44;4997718;28;20030;-65
2020/12/14 07:08:37;;;;;;;5.97;1.50;;;;;;;5.99;98.63;100073.72;5003986;28;20396;-65
2020/12/14 07:11:17;;;;;;;5.32;1.63;;;;;;;5.93;99.42;100074.50;4995882;28;20304;-66
2020/12/14 07:13:44;;;;;;;3.80;1.30;;;;;;;5.88;100.00;100079.63;5004296;28;20044;-65
2020/12/14 07:16:12;;;;;;;3.00;1.30;;;;;;;5.81;100.00;100077.81;4996074;28;20330;-65
2020/12/14 07:18:42;;;;;;;4.53;1.30;;;;;;;5.79;100.00;100074.34;5006160;28;20276;-65
2020/12/14 07:21:10;;;;;;;3.30;1.60;;;;;;;5.77;100.00;100083.81;5003564;28;20804;-66
2020/12/14 07:23:38;;;;;;;5.03;1.50;;;;;;;5.72;100.00;100077.72;4999092;28;20277;-66
2020/12/14 07:26:05;;;;;;;3.70;1.50;;;;;;;5.65;100.00;100078.50;5005811;28;20376;-65
2020/12/14 07:28:41;;;;;;;4.00;1.43;;;;;;;5.64;100.00;100076.78;4989264;28;20312;-66
2020/12/14 07:31:29;;;;;;;7.43;1.70;;;;;;;5.61;100.00;100074.16;4996858;28;20293;-65
2020/12/14 07:33:56;;;;;;;3.70;1.33;;;;;;;5.57;100.00;100077.53;4993819;28;20308;-65
2020/12/14 07:36:23;;;;;;;5.23;1.80;;;;;;;5.56;100.00;100068.03;4995649;28;20268;-64
2020/12/14 07:38:52;;;;;;;4.40;1.53;;;;;;;5.53;100.00;100066.28;5002029;28;20277;-65
2020/12/14 07:41:18;;;;;;;4.03;1.60;;;;;;;5.51;100.00;100072.28;4997471;28;20332;-65
2020/12/14 07:43:55;;;;;;;6.40;1.50;;;;;;;5.49;100.00;100074.88;5005656;28;20281;-65
2020/12/14 07:46:30;;;;;;;4.37;1.80;;;;;;;5.51;100.00;100069.72;5001964;28;20284;-66
2020/12/14 07:49:07;;;;;;;6.07;1.67;;;;;;;5.54;100.00;100078.38;4999776;28;20289;-66
2020/12/14 07:51:37;;;;;;;8.40;1.80;;;;;;;5.58;100.00;100076.72;4996791;28;20372;-65
2020/12/14 07:54:13;;;;;;;5.93;1.80;;;;;;;5.62;100.00;100068.09;5002852;28;20293;-65
2020/12/14 07:56:56;;;;;;;5.60;1.60;;;;;;;5.65;100.00;100078.50;5004617;28;20638;-65
2020/12/14 07:59:24;;;;;;;5.15;1.90;;;;;;;5.67;100.00;100074.19;4994739;28;20273;-66
2020/12/14 08:01:49;;;;;;;6.87;2.00;;;;;;;5.71;100.00;100073.41;5000672;28;20026;-65
2020/12/14 08:04:41;;;;;;;5.60;1.50;;;;;;;5.76;100.00;100073.44;4993253;28;20291;-66
2020/12/14 08:07:09;;;;;;;6.50;1.80;;;;;;;5.82;100.00;100064.00;4996561;28;20041;-66
2020/12/14 08:09:39;;;;;;;5.27;1.97;;;;;;;5.86;100.00;100080.47;5003329;28;20819;-66
2020/12/14 08:12:06;;;;;;;4.63;2.33;;;;;;;5.88;100.00;100069.25;5009860;28;20272;-66
2020/12/14 08:14:32;;;;;;;4.33;1.50;;;;;;;5.94;100.00;100080.59;5010285;28;20028;-66
2020/12/14 08:16:59;;;;;;;6.57;1.80;;;;;;;5.93;100.00;100073.63;5008804;28;20269;-66
2020/12/14 08:19:24;;;;;;;4.63;1.67;;;;;;;5.92;100.00;100075.38;4996573;28;20383;-66
2020/12/14 08:22:09;;;;;;;5.73;1.93;;;;;;;5.89;100.00;100076.16;5000780;28;20367;-65
2020/12/14 08:24:37;;;;;;;4.30;1.60;;;;;;;5.87;100.00;100077.88;4996993;28;20025;-66
2020/12/14 08:27:05;;;;;;;5.67;1.80;;;;;;;5.85;100.00;100084.78;5004318;28;20280;-65
2020/12/14 08:29:32;;;;;;;4.97;1.80;;;;;;;5.84;100.00;100088.25;4997093;28;20292;-65
2020/12/14 08:32:00;;;;;;;5.73;1.87;;;;;;;5.85;100.00;100084.78;5001951;28;20320;-66
2020/12/14 08:34:36;;;;;;;6.97;2.17;;;;;;;5.88;100.00;100095.19;5000282;28;20116;-65
2020/12/14 08:37:04;;;;;;;4.23;1.70;;;;;;;5.89;100.00;100093.47;4995256;28;20261;-65
2020/12/14 08:39:30;;;;;;;3.43;1.40;;;;;;;5.92;100.00;100090.94;4994293;28;20274;-65
2020/12/14 08:42:10;;;;;;;4.50;1.63;;;;;;;5.94;100.00;100083.19;4994118;28;20847;-66
2020/12/14 08:44:38;;;;;;;7.50;1.87;;;;;;;5.98;100.00;100087.53;5005175;28;20031;-65
2020/12/14 08:47:14;;;;;;;6.23;1.83;;;;;;;5.99;100.00;100091.88;5003976;28;20307;-66
2020/12/14 08:49:39;;;;;;;5.03;1.67;;;;;;;6.04;100.00;100087.59;5002717;28;20284;-66
2020/12/14 08:52:04;;;;;;;3.93;1.40;;;;;;;6.08;100.00;100089.38;5002806;28;20029;-65
2020/12/14 08:54:30;;;;;;;7.23;1.60;;;;;;;6.12;100.00;100091.13;5005827;28;20038;-65
2020/12/14 08:56:55;;;;;;;4.27;1.63;;;;;;;6.13;100.00;100093.75;5003365;28;20037;-65
2020/12/14 08:59:23;;;;;;;4.70;1.50;;;;;;;6.21;100.00;100088.63;5002634;28;20030;-65
2020/12/14 09:02:08;;;;;;;4.07;1.60;;;;;;;6.29;100.00;100092.16;5001380;28;20118;-66
2020/12/14 09:04:36;;;;;;;6.23;1.77;;;;;;;6.36;100.00;100099.16;5000131;28;20359;-66
2020/12/14 09:07:03;;;;;;;4.67;1.50;;;;;;;6.42;100.00;100094.03;5001580;28;20281;-66
2020/12/14 09:09:31;;;;;;;5.47;1.53;;;;;;;6.46;100.00;100095.78;5004002;28;20304;-65
2020/12/14 09:11:57;;;;;;;3.10;1.40;;;;;;;6.54;100.00;100092.34;5000366;28;20284;-65
2020/12/14 09:14:30;;;;;;;4.27;1.50;;;;;;;6.57;100.00;100082.00;5009767;28;20497;-66
2020/12/14 09:17:00;;;;;;;4.07;1.53;;;;;;;6.61;100.00;100092.44;5005587;28;20504;-65
2020/12/14 09:19:31;;;;;;;4.53;1.70;;;;;;;6.61;100.00;100089.81;5008603;28;20273;-65
2020/12/14 09:21:57;;;;;;;5.63;1.57;;;;;;;6.59;100.00;100090.69;5007470;28;20033;-66
2020/12/14 09:24:25;;;;;;;4.13;1.70;;;;;;;6.53;100.00;100088.03;5008373;28;20276;-66
2020/12/14 09:26:53;;;;;;;4.63;1.40;;;;;;;6.53;100.00;100090.63;5007030;28;20029;-66
2020/12/14 09:29:18;;;;;;;5.43;1.70;;;;;;;6.50;100.00;100091.47;5009546;28;20084;-64
2020/12/14 09:31:55;;;;;;;4.37;1.60;;;;;;;6.50;100.00;100095.78;5005884;28;20026;-66
2020/12/14 09:34:21;;;;;;;4.87;1.50;;;;;;;6.51;100.00;100093.19;5009783;28;20034;-65
2020/12/14 09:36:57;;;;;;;6.00;1.67;;;;;;;6.51;100.00;100093.19;5009726;28;20113;-66
2020/12/14 09:39:24;;;;;;;7.07;1.90;;;;;;;6.54;100.00;100094.94;5008391;28;20437;-66
2020/12/14 09:41:51;;;;;;;6.60;1.73;;;;;;;6.58;100.00;100099.34;5010016;28;20683;-65
2020/12/14 09:44:18;;;;;;;4.23;1.60;;;;;;;6.60;100.00;100097.63;5008187;28;20034;-65
2020/12/14 09:46:44;;;;;;;5.97;2.10;;;;;;;6.64;100.00;100094.16;5009165;28;20032;-65
2020/12/14 09:49:10;;;;;;;6.30;1.70;;;;;;;6.70;100.00;100095.09;5009110;28;20292;-65
2020/12/14 09:51:36;;;;;;;7.30;2.10;;;;;;;6.72;100.00;100103.78;5008926;28;20033;-66
2020/12/14 09:54:03;;;;;;;8.60;1.90;;;;;;;6.72;100.00;100097.69;5010411;28;20033;-66
2020/12/14 09:56:29;;;;;;;7.50;2.17;;;;;;;6.71;100.00;100095.97;5008008;28;20366;-65
2020/12/14 09:58:54;;;;;;;5.10;2.20;;;;;;;6.73;100.00;100094.25;5009279;28;20065;-65
2020/12/14 10:01:20;;;;;;;8.40;2.47;;;;;;;6.76;100.00;100094.25;5007598;28;20026;-65
2020/12/14 10:03:45;;;;;;;7.27;2.00;;;;;;;6.77;100.00;100098.59;5008869;28;20030;-65
2020/12/14 10:06:12;;;;;;;5.40;1.80;;;;;;;6.85;100.00;100096.94;5009318;28;20100;-65
2020/12/14 10:08:38;;;;;;;4.57;2.03;;;;;;;6.89;100.00;100106.47;5009215;28;20046;-65
2020/12/14 10:11:04;;;;;;;7.90;2.00;;;;;;;6.90;100.00;100103.00;5008132;28;20057;-65
2020/12/14 10:13:29;;;;;;;6.77;2.33;;;;;;;6.97;100.00;100096.13;5009052;28;20564;-65
2020/12/14 10:15:55;;;;;;;5.17;2.50;;;;;;;7.01;100.00;100101.34;5008834;28;20030;-65
2020/12/14 10:18:20;;;;;;;4.20;1.90;;;;;;;7.10;100.00;100102.28;5008761;28;20040;-66
2020/12/14 10:20:46;;;;;;;8.07;2.23;;;;;;;7.15;100.00;100103.16;5008568;28;20053;-66
2020/12/14 10:23:12;;;;;;;5.57;1.80;;;;;;;7.31;100.00;100107.59;5007462;28;20168;-65
2020/12/14 10:25:38;;;;;;;5.03;1.80;;;;;;;7.46;100.00;100102.47;5007491;28;20061;-65
2020/12/14 10:28:05;;;;;;;6.67;2.20;;;;;;;7.62;100.00;100104.25;5006490;28;20037;-66
2020/12/14 10:30:31;;;;;;;4.20;2.00;;;;;;;7.71;100.00;100105.16;5005440;28;20400;-65
2020/12/14 10:32:57;;;;;;;6.50;2.00;;;;;;;7.73;100.00;100098.22;5007228;28;20472;-66
2020/12/14 10:35:24;;;;;;;4.20;1.93;;;;;;;7.89;100.00;100100.03;5006367;28;20065;-65
2020/12/14 10:37:49;;;;;;;6.07;1.70;;;;;;;7.96;100.00;100100.91;5007207;28;20026;-65
2020/12/14 10:40:15;;;;;;;4.80;2.10;;;;;;;8.00;100.00;100094.84;5008380;28;20160;-67
2020/12/14 10:42:42;;;;;;;6.23;1.77;;;;;;;8.11;100.00;100086.16;5008361;28;20042;-66
2020/12/14 10:45:08;;;;;;;4.13;1.77;;;;;;;8.18;100.00;100095.72;5007563;28;20144;-66
2020/12/14 10:47:34;;;;;;;3.90;1.80;;;;;;;8.25;100.00;100094.00;5006953;28;20057;-67
2020/12/14 10:50:00;;;;;;;4.07;1.87;;;;;;;8.22;100.00;100100.06;5008278;28;20164;-67
2020/12/14 10:52:25;;;;;;;5.10;1.73;;;;;;;8.19;100.00;100100.06;5007857;28;20548;-67
2020/12/14 10:54:50;;;;;;;6.20;1.90;;;;;;;8.17;100.00;100103.53;5008701;28;20608;-65
2020/12/14 10:57:17;;;;;;;4.63;1.93;;;;;;;8.17;100.00;100106.16;5011107;28;20025;-66
2020/12/14 10:59:43;;;;;;;6.17;1.97;;;;;;;8.21;100.00;100113.94;5010801;28;20089;-66
2020/12/14 11:02:08;;;;;;;4.47;1.70;;;;;;;8.17;100.00;100107.00;5011488;28;20117;-66
2020/12/14 11:04:33;;;;;;;5.33;2.00;;;;;;;8.12;100.00;100108.75;5010782;28;20022;-66
2020/12/14 11:06:59;;;;;;;3.53;1.57;;;;;;;8.17;100.00;100109.63;5012476;28;20026;-66
2020/12/14 11:09:25;;;;;;;5.93;1.80;;;;;;;8.23;100.00;100112.22;5010482;28;20033;-67
2020/12/14 11:11:50;;;;;;;6.07;1.93;;;;;;;8.26;100.00;100115.72;5009759;28;20135;-66
2020/12/14 11:14:16;;;;;;;5.30;1.60;;;;;;;8.26;100.00;100110.50;5011278;28;20374;-65
2020/12/14 11:16:44;;;;;;;6.53;2.03;;;;;;;8.23;100.00;100116.56;5011695;28;20022;-65
2020/12/14 11:19:09;;;;;;;3.20;1.60;;;;;;;8.26;100.00;100113.97;5011447;28;20030;-66
2020/12/14 11:21:35;;;;;;;6.93;1.60;;;;;;;8.23;100.00;100121.78;5010247;28;20224;-66
2020/12/14 11:24:00;;;;;;;6.67;1.93;;;;;;;8.17;100.00;100116.56;5012413;28;20515;-66
2020/12/14 11:26:26;;;;;;;3.57;1.43;;;;;;;8.15;100.00;100111.34;5011868;28;20029;-66
2020/12/14 11:28:51;;;;;;;4.73;2.07;;;;;;;8.19;100.00;100112.22;5011473;28;20030;-67
2020/12/14 11:31:20;;;;;;;4.27;2.07;;;;;;;8.25;100.00;100119.19;5009723;28;20022;-66
2020/12/14 11:33:46;;;;;;;4.50;1.80;;;;;;;8.28;100.00;100109.63;5008470;28;20112;-66